sensor_id;sensor_type;location;lat;lon;timestamp;temperature;humidity
69731;SHT31;56996;48.138;11.538;2022-11-15T00:01:43;6.59;74.79
69731;SHT31;56996;48.138;11.538;2022-11-15T00:04:28;6.56;74.80
69731;SHT31;56996;48.138;11.538;2022-11-15T00:07:14;6.52;74.85
69731;SHT31;56996;48.138;11.538;2022-11-15T00:10:19;6.50;74.90
69731;SHT31;56996;48.138;11.538;2022-11-15T00:13:08;6.49;74.98
69731;SHT31;56996;48.138;11.538;2022-11-15T00:15:58;6.47;75.00
69731;SHT31;56996;48.138;11.538;2022-11-15T00:18:45;6.46;75.01
69731;SHT31;56996;48.138;11.538;2022-11-15T00:21:35;6.45;75.03
69731;SHT31;56996;48.138;11.538;2022-11-15T00:24:20;6.46;75.09
69731;SHT31;56996;48.138;11.538;2022-11-15T00:27:05;6.46;75.18
69731;SHT31;56996;48.138;11.538;2022-11-15T00:29:52;6.47;75.15
69731;SHT31;56996;48.138;11.538;2022-11-15T00:32:37;6.49;75.10
69731;SHT31;56996;48.138;11.538;2022-11-15T00:35:23;6.46;75.11
69731;SHT31;56996;48.138;11.538;2022-11-15T00:38:08;6.45;75.08
69731;SHT31;56996;48.138;11.538;2022-11-15T00:40:53;6.44;75.07
69731;SHT31;56996;48.138;11.538;2022-11-15T00:43:39;6.43;75.09
69731;SHT31;56996;48.138;11.538;2022-11-15T00:46:25;6.41;75.12
69731;SHT31;56996;48.138;11.538;2022-11-15T00:49:10;6.40;75.20
69731;SHT31;56996;48.138;11.538;2022-11-15T00:51:56;6.41;75.20
69731;SHT31;56996;48.138;11.538;2022-11-15T00:54:41;6.42;75.12
69731;SHT31;56996;48.138;11.538;2022-11-15T00:57:26;6.39;75.00
69731;SHT31;56996;48.138;11.538;2022-11-15T01:00:12;6.37;75.00
69731;SHT31;56996;48.138;11.538;2022-11-15T01:02:59;6.32;75.03
69731;SHT31;56996;48.138;11.538;2022-11-15T01:05:46;6.29;75.11
69731;SHT31;56996;48.138;11.538;2022-11-15T01:08:31;6.26;75.12
69731;SHT31;56996;48.138;11.538;2022-11-15T01:11:17;6.23;75.04
69731;SHT31;56996;48.138;11.538;2022-11-15T01:14:03;6.19;75.01
69731;SHT31;56996;48.138;11.538;2022-11-15T01:16:48;6.15;75.01
69731;SHT31;56996;48.138;11.538;2022-11-15T01:19:34;6.11;75.09
69731;SHT31;56996;48.138;11.538;2022-11-15T01:22:19;6.08;75.10
69731;SHT31;56996;48.138;11.538;2022-11-15T01:25:05;6.04;75.14
69731;SHT31;56996;48.138;11.538;2022-11-15T01:27:51;6.03;75.21
69731;SHT31;56996;48.138;11.538;2022-11-15T01:30:36;6.02;75.21
69731;SHT31;56996;48.138;11.538;2022-11-15T01:33:22;5.99;75.30
69731;SHT31;56996;48.138;11.538;2022-11-15T01:36:08;5.97;75.37
69731;SHT31;56996;48.138;11.538;2022-11-15T01:38:58;5.94;75.33
69731;SHT31;56996;48.138;11.538;2022-11-15T01:41:44;5.93;75.29
69731;SHT31;56996;48.138;11.538;2022-11-15T01:44:49;5.90;75.33
69731;SHT31;56996;48.138;11.538;2022-11-15T01:47:37;5.90;75.32
69731;SHT31;56996;48.138;11.538;2022-11-15T01:50:29;5.91;75.26
69731;SHT31;56996;48.138;11.538;2022-11-15T01:53:17;5.91;75.22
69731;SHT31;56996;48.138;11.538;2022-11-15T01:56:07;5.91;75.26
69731;SHT31;56996;48.138;11.538;2022-11-15T01:58:59;5.88;75.20
69731;SHT31;56996;48.138;11.538;2022-11-15T02:01:49;5.86;75.14
69731;SHT31;56996;48.138;11.538;2022-11-15T02:04:36;5.83;75.15
69731;SHT31;56996;48.138;11.538;2022-11-15T02:07:26;5.78;75.08
69731;SHT31;56996;48.138;11.538;2022-11-15T02:10:18;5.77;74.91
69731;SHT31;56996;48.138;11.538;2022-11-15T02:13:06;5.75;74.80
69731;SHT31;56996;48.138;11.538;2022-11-15T02:15:56;5.73;74.83
69731;SHT31;56996;48.138;11.538;2022-11-15T02:28:48;5.66;74.90
69731;SHT31;56996;48.138;11.538;2022-11-15T02:31:36;5.62;75.05
69731;SHT31;56996;48.138;11.538;2022-11-15T02:41:27;5.58;75.20
69731;SHT31;56996;48.138;11.538;2022-11-15T02:44:32;5.58;75.10
69731;SHT31;56996;48.138;11.538;2022-11-15T02:47:25;5.56;75.05
69731;SHT31;56996;48.138;11.538;2022-11-15T02:50:18;5.54;75.00
69731;SHT31;56996;48.138;11.538;2022-11-15T02:53:07;5.54;74.90
69731;SHT31;56996;48.138;11.538;2022-11-15T02:55:54;5.52;74.80
69731;SHT31;56996;48.138;11.538;2022-11-15T02:58:47;5.49;74.85
69731;SHT31;56996;48.138;11.538;2022-11-15T03:05:25;5.47;74.85
69731;SHT31;56996;48.138;11.538;2022-11-15T03:08:32;5.45;74.91
69731;SHT31;56996;48.138;11.538;2022-11-15T03:11:24;5.44;74.99
69731;SHT31;56996;48.138;11.538;2022-11-15T03:14:23;5.42;74.95
69731;SHT31;56996;48.138;11.538;2022-11-15T03:17:22;5.42;74.86
69731;SHT31;56996;48.138;11.538;2022-11-15T03:20:13;5.43;74.72
69731;SHT31;56996;48.138;11.538;2022-11-15T03:23:04;5.44;74.70
69731;SHT31;56996;48.138;11.538;2022-11-15T03:25:55;5.45;74.69
69731;SHT31;56996;48.138;11.538;2022-11-15T03:28:57;5.45;74.68
69731;SHT31;56996;48.138;11.538;2022-11-15T03:31:57;5.46;74.62
69731;SHT31;56996;48.138;11.538;2022-11-15T03:34:50;5.46;74.64
69731;SHT31;56996;48.138;11.538;2022-11-15T03:40:45;5.44;74.61
69731;SHT31;56996;48.138;11.538;2022-11-15T03:43:39;5.42;74.57
69731;SHT31;56996;48.138;11.538;2022-11-15T03:46:34;5.42;74.62
69731;SHT31;56996;48.138;11.538;2022-11-15T03:49:31;5.42;74.58
69731;SHT31;56996;48.138;11.538;2022-11-15T03:52:20;5.43;74.49
69731;SHT31;56996;48.138;11.538;2022-11-15T03:55:07;5.43;74.41
69731;SHT31;56996;48.138;11.538;2022-11-15T03:57:59;5.44;74.31
69731;SHT31;56996;48.138;11.538;2022-11-15T04:00:46;5.44;74.30
69731;SHT31;56996;48.138;11.538;2022-11-15T04:03:31;5.44;74.17
69731;SHT31;56996;48.138;11.538;2022-11-15T04:06:17;5.44;74.11
69731;SHT31;56996;48.138;11.538;2022-11-15T04:09:03;5.41;74.20
69731;SHT31;56996;48.138;11.538;2022-11-15T04:11:48;5.40;74.29
69731;SHT31;56996;48.138;11.538;2022-11-15T04:14:33;5.41;74.22
69731;SHT31;56996;48.138;11.538;2022-11-15T04:17:19;5.39;74.20
69731;SHT31;56996;48.138;11.538;2022-11-15T04:20:05;5.39;74.13
69731;SHT31;56996;48.138;11.538;2022-11-15T04:23:21;5.36;74.25
69731;SHT31;56996;48.138;11.538;2022-11-15T04:26:27;5.36;74.30
69731;SHT31;56996;48.138;11.538;2022-11-15T04:29:12;5.34;74.22
69731;SHT31;56996;48.138;11.538;2022-11-15T04:32:16;5.32;74.16
69731;SHT31;56996;48.138;11.538;2022-11-15T04:35:02;5.28;74.09
69731;SHT31;56996;48.138;11.538;2022-11-15T04:37:48;5.27;73.78
69731;SHT31;56996;48.138;11.538;2022-11-15T04:40:34;5.23;73.67
69731;SHT31;56996;48.138;11.538;2022-11-15T04:43:21;5.19;73.70
69731;SHT31;56996;48.138;11.538;2022-11-15T04:46:07;5.16;73.87
69731;SHT31;56996;48.138;11.538;2022-11-15T04:48:52;5.13;73.96
69731;SHT31;56996;48.138;11.538;2022-11-15T04:51:43;5.10;74.07
69731;SHT31;56996;48.138;11.538;2022-11-15T04:54:29;5.07;74.10
69731;SHT31;56996;48.138;11.538;2022-11-15T04:57:14;5.06;74.08
69731;SHT31;56996;48.138;11.538;2022-11-15T05:00:00;5.05;74.05
69731;SHT31;56996;48.138;11.538;2022-11-15T05:02:45;5.02;74.00
69731;SHT31;56996;48.138;11.538;2022-11-15T05:05:49;5.00;73.94
69731;SHT31;56996;48.138;11.538;2022-11-15T05:08:35;4.99;73.86
69731;SHT31;56996;48.138;11.538;2022-11-15T05:11:20;4.98;73.73
69731;SHT31;56996;48.138;11.538;2022-11-15T05:14:07;4.96;73.58
69731;SHT31;56996;48.138;11.538;2022-11-15T05:16:52;4.95;73.52
69731;SHT31;56996;48.138;11.538;2022-11-15T05:19:37;4.95;73.61
69731;SHT31;56996;48.138;11.538;2022-11-15T05:22:23;4.95;73.70
69731;SHT31;56996;48.138;11.538;2022-11-15T05:25:08;4.93;73.70
69731;SHT31;56996;48.138;11.538;2022-11-15T05:27:54;4.92;73.70
69731;SHT31;56996;48.138;11.538;2022-11-15T05:30:40;4.92;73.71
69731;SHT31;56996;48.138;11.538;2022-11-15T05:33:25;4.91;73.72
69731;SHT31;56996;48.138;11.538;2022-11-15T05:36:29;4.89;73.69
69731;SHT31;56996;48.138;11.538;2022-11-15T05:39:21;4.89;73.67
69731;SHT31;56996;48.138;11.538;2022-11-15T05:42:11;4.90;73.61
69731;SHT31;56996;48.138;11.538;2022-11-15T05:44:58;4.89;73.60
69731;SHT31;56996;48.138;11.538;2022-11-15T05:47:48;4.90;73.60
69731;SHT31;56996;48.138;11.538;2022-11-15T05:50:35;4.88;73.53
69731;SHT31;56996;48.138;11.538;2022-11-15T05:53:24;4.87;73.56
69731;SHT31;56996;48.138;11.538;2022-11-15T05:56:10;4.87;73.59
69731;SHT31;56996;48.138;11.538;2022-11-15T05:58:57;4.89;73.58
69731;SHT31;56996;48.138;11.538;2022-11-15T06:01:44;4.88;73.50
69731;SHT31;56996;48.138;11.538;2022-11-15T06:04:29;4.90;73.45
69731;SHT31;56996;48.138;11.538;2022-11-15T06:07:14;4.91;73.40
69731;SHT31;56996;48.138;11.538;2022-11-15T06:10:00;4.94;73.34
69731;SHT31;56996;48.138;11.538;2022-11-15T06:12:46;4.95;73.23
69731;SHT31;56996;48.138;11.538;2022-11-15T06:15:31;4.95;73.31
69731;SHT31;56996;48.138;11.538;2022-11-15T06:18:19;4.96;73.33
69731;SHT31;56996;48.138;11.538;2022-11-15T06:21:04;4.96;73.33
69731;SHT31;56996;48.138;11.538;2022-11-15T06:23:50;4.96;73.24
69731;SHT31;56996;48.138;11.538;2022-11-15T06:26:36;4.95;73.21
69731;SHT31;56996;48.138;11.538;2022-11-15T06:29:21;4.93;73.12
69731;SHT31;56996;48.138;11.538;2022-11-15T06:32:07;4.93;73.10
69731;SHT31;56996;48.138;11.538;2022-11-15T06:34:52;4.94;73.16
69731;SHT31;56996;48.138;11.538;2022-11-15T06:37:38;4.94;73.36
69731;SHT31;56996;48.138;11.538;2022-11-15T06:40:23;4.95;73.40
69731;SHT31;56996;48.138;11.538;2022-11-15T06:43:08;4.95;73.41
69731;SHT31;56996;48.138;11.538;2022-11-15T06:45:54;4.97;73.40
69731;SHT31;56996;48.138;11.538;2022-11-15T06:48:39;4.98;73.23
69731;SHT31;56996;48.138;11.538;2022-11-15T06:51:25;5.00;73.26
69731;SHT31;56996;48.138;11.538;2022-11-15T06:54:10;5.00;73.07
69731;SHT31;56996;48.138;11.538;2022-11-15T06:56:55;5.00;73.01
69731;SHT31;56996;48.138;11.538;2022-11-15T06:59:40;5.04;72.90
69731;SHT31;56996;48.138;11.538;2022-11-15T07:02:26;5.07;72.80
69731;SHT31;56996;48.138;11.538;2022-11-15T07:05:12;5.10;72.81
69731;SHT31;56996;48.138;11.538;2022-11-15T07:07:58;5.13;72.80
69731;SHT31;56996;48.138;11.538;2022-11-15T07:10:44;5.17;72.80
69731;SHT31;56996;48.138;11.538;2022-11-15T07:13:30;5.20;72.85
69731;SHT31;56996;48.138;11.538;2022-11-15T07:16:20;5.25;72.62
69731;SHT31;56996;48.138;11.538;2022-11-15T07:19:06;5.30;72.62
69731;SHT31;56996;48.138;11.538;2022-11-15T07:21:53;5.34;72.42
69731;SHT31;56996;48.138;11.538;2022-11-15T07:24:39;5.36;72.40
69731;SHT31;56996;48.138;11.538;2022-11-15T07:27:25;5.39;72.30
69731;SHT31;56996;48.138;11.538;2022-11-15T07:30:10;5.45;72.13
69731;SHT31;56996;48.138;11.538;2022-11-15T07:33:00;5.49;72.03
69731;SHT31;56996;48.138;11.538;2022-11-15T07:35:45;5.54;72.18
69731;SHT31;56996;48.138;11.538;2022-11-15T07:38:34;5.60;72.15
69731;SHT31;56996;48.138;11.538;2022-11-15T07:41:27;5.66;72.01
69731;SHT31;56996;48.138;11.538;2022-11-15T07:44:13;5.71;71.89
69731;SHT31;56996;48.138;11.538;2022-11-15T07:46:59;5.78;71.84
69731;SHT31;56996;48.138;11.538;2022-11-15T07:49:44;5.86;71.67
69731;SHT31;56996;48.138;11.538;2022-11-15T07:52:31;5.95;71.49
69731;SHT31;56996;48.138;11.538;2022-11-15T07:55:16;6.04;71.44
69731;SHT31;56996;48.138;11.538;2022-11-15T08:00:49;6.18;71.30
69731;SHT31;56996;48.138;11.538;2022-11-15T08:03:34;6.23;71.25
69731;SHT31;56996;48.138;11.538;2022-11-15T08:06:20;6.32;71.19
69731;SHT31;56996;48.138;11.538;2022-11-15T08:09:06;6.48;71.23
69731;SHT31;56996;48.138;11.538;2022-11-15T08:11:51;6.62;71.07
69731;SHT31;56996;48.138;11.538;2022-11-15T08:14:36;6.75;70.32
69731;SHT31;56996;48.138;11.538;2022-11-15T08:17:22;6.84;69.71
69731;SHT31;56996;48.138;11.538;2022-11-15T08:20:09;6.91;69.29
69731;SHT31;56996;48.138;11.538;2022-11-15T08:22:58;7.00;69.21
69731;SHT31;56996;48.138;11.538;2022-11-15T08:25:45;7.17;69.01
69731;SHT31;56996;48.138;11.538;2022-11-15T08:28:31;7.35;68.29
69731;SHT31;56996;48.138;11.538;2022-11-15T08:31:17;7.51;67.75
69731;SHT31;56996;48.138;11.538;2022-11-15T08:34:04;7.66;67.12
69731;SHT31;56996;48.138;11.538;2022-11-15T08:36:50;7.81;66.88
69731;SHT31;56996;48.138;11.538;2022-11-15T08:39:36;7.94;66.51
69731;SHT31;56996;48.138;11.538;2022-11-15T08:42:23;8.06;66.39
69731;SHT31;56996;48.138;11.538;2022-11-15T08:45:08;8.18;66.02
69731;SHT31;56996;48.138;11.538;2022-11-15T08:47:54;8.25;65.91
69731;SHT31;56996;48.138;11.538;2022-11-15T08:50:40;8.33;65.67
69731;SHT31;56996;48.138;11.538;2022-11-15T08:53:25;8.41;65.45
69731;SHT31;56996;48.138;11.538;2022-11-15T08:56:13;8.48;65.16
69731;SHT31;56996;48.138;11.538;2022-11-15T08:58:59;8.56;64.84
69731;SHT31;56996;48.138;11.538;2022-11-15T09:01:45;8.63;64.51
69731;SHT31;56996;48.138;11.538;2022-11-15T09:04:30;8.68;64.34
69731;SHT31;56996;48.138;11.538;2022-11-15T09:07:16;8.75;64.34
69731;SHT31;56996;48.138;11.538;2022-11-15T09:10:02;8.85;63.59
69731;SHT31;56996;48.138;11.538;2022-11-15T09:12:48;8.94;62.79
69731;SHT31;56996;48.138;11.538;2022-11-15T09:15:33;9.04;62.46
69731;SHT31;56996;48.138;11.538;2022-11-15T09:18:19;9.14;62.11
69731;SHT31;56996;48.138;11.538;2022-11-15T09:21:07;9.26;62.04
69731;SHT31;56996;48.138;11.538;2022-11-15T09:23:53;9.83;60.99
69731;SHT31;56996;48.138;11.538;2022-11-15T09:26:39;11.00;59.02
69731;SHT31;56996;48.138;11.538;2022-11-15T09:29:25;12.27;56.50
69731;SHT31;56996;48.138;11.538;2022-11-15T09:32:11;13.51;54.40
69731;SHT31;56996;48.138;11.538;2022-11-15T09:34:56;14.57;51.85
69731;SHT31;56996;48.138;11.538;2022-11-15T09:37:42;15.35;50.57
69731;SHT31;56996;48.138;11.538;2022-11-15T09:40:29;16.32;49.35
69731;SHT31;56996;48.138;11.538;2022-11-15T09:49:35;18.99;43.91
69731;SHT31;56996;48.138;11.538;2022-11-15T09:52:14;19.74;42.68
69731;SHT31;56996;48.138;11.538;2022-11-15T09:54:47;19.97;38.51
69731;SHT31;56996;48.138;11.538;2022-11-15T09:57:21;20.18;41.11
69731;SHT31;56996;48.138;11.538;2022-11-15T10:05:45;21.06;35.75
69731;SHT31;56996;48.138;11.538;2022-11-15T10:11:08;21.83;36.76
69731;SHT31;56996;48.138;11.538;2022-11-15T10:14:02;22.55;36.43
69731;SHT31;56996;48.138;11.538;2022-11-15T10:19:46;23.48;35.28
69731;SHT31;56996;48.138;11.538;2022-11-15T10:22:41;23.99;34.61
69731;SHT31;56996;48.138;11.538;2022-11-15T10:25:18;24.10;33.77
69731;SHT31;56996;48.138;11.538;2022-11-15T10:27:58;23.98;33.71
69731;SHT31;56996;48.138;11.538;2022-11-15T10:30:32;23.72;33.45
69731;SHT31;56996;48.138;11.538;2022-11-15T10:33:17;23.58;33.42
69731;SHT31;56996;48.138;11.538;2022-11-15T10:36:16;23.54;33.25
69731;SHT31;56996;48.138;11.538;2022-11-15T10:41:20;22.96;33.37
69731;SHT31;56996;48.138;11.538;2022-11-15T10:47:06;21.51;33.89
69731;SHT31;56996;48.138;11.538;2022-11-15T10:49:55;20.90;34.55
69731;SHT31;56996;48.138;11.538;2022-11-15T10:52:31;20.32;34.97
69731;SHT31;56996;48.138;11.538;2022-11-15T10:57:37;18.98;34.37
69731;SHT31;56996;48.138;11.538;2022-11-15T11:00:06;18.28;35.94
69731;SHT31;56996;48.138;11.538;2022-11-15T11:05:37;17.60;36.73
69731;SHT31;56996;48.138;11.538;2022-11-15T11:10:53;17.11;37.81
69731;SHT31;56996;48.138;11.538;2022-11-15T11:13:28;16.78;38.72
69731;SHT31;56996;48.138;11.538;2022-11-15T11:18:44;16.55;39.62
69731;SHT31;56996;48.138;11.538;2022-11-15T11:29:56;16.08;40.80
69731;SHT31;56996;48.138;11.538;2022-11-15T11:38:34;15.74;41.43
69731;SHT31;56996;48.138;11.538;2022-11-15T11:44:30;15.64;41.95
69731;SHT31;56996;48.138;11.538;2022-11-15T11:47:21;15.63;41.31
69731;SHT31;56996;48.138;11.538;2022-11-15T11:49:56;15.57;40.86
69731;SHT31;56996;48.138;11.538;2022-11-15T11:52:38;15.48;40.91
69731;SHT31;56996;48.138;11.538;2022-11-15T11:55:39;15.43;41.25
69731;SHT31;56996;48.138;11.538;2022-11-15T12:03:40;15.27;41.98
69731;SHT31;56996;48.138;11.538;2022-11-15T12:09:38;15.04;42.13
69731;SHT31;56996;48.138;11.538;2022-11-15T12:17:35;15.20;42.70
69731;SHT31;56996;48.138;11.538;2022-11-15T12:20:13;15.24;42.67
69731;SHT31;56996;48.138;11.538;2022-11-15T12:28:16;15.28;42.39
69731;SHT31;56996;48.138;11.538;2022-11-15T12:31:03;15.32;41.77
69731;SHT31;56996;48.138;11.538;2022-11-15T12:33:46;15.33;41.62
69731;SHT31;56996;48.138;11.538;2022-11-15T12:38:54;15.36;41.63
69731;SHT31;56996;48.138;11.538;2022-11-15T12:41:22;15.40;41.37
69731;SHT31;56996;48.138;11.538;2022-11-15T13:03:12;15.55;41.25
69731;SHT31;56996;48.138;11.538;2022-11-15T13:05:51;15.60;41.46
69731;SHT31;56996;48.138;11.538;2022-11-15T13:08:35;15.64;41.38
69731;SHT31;56996;48.138;11.538;2022-11-15T13:19:47;15.59;41.55
69731;SHT31;56996;48.138;11.538;2022-11-15T13:22:21;15.60;41.72
69731;SHT31;56996;48.138;11.538;2022-11-15T13:25:14;15.63;41.84
69731;SHT31;56996;48.138;11.538;2022-11-15T13:30:40;15.66;41.98
69731;SHT31;56996;48.138;11.538;2022-11-15T13:36:07;15.69;42.09
69731;SHT31;56996;48.138;11.538;2022-11-15T13:38:41;15.66;42.19
69731;SHT31;56996;48.138;11.538;2022-11-15T13:41:14;15.64;42.41
69731;SHT31;56996;48.138;11.538;2022-11-15T13:43:48;15.61;42.31
69731;SHT31;56996;48.138;11.538;2022-11-15T13:46:19;15.55;42.54
69731;SHT31;56996;48.138;11.538;2022-11-15T13:48:57;15.55;42.85
69731;SHT31;56996;48.138;11.538;2022-11-15T13:54:27;15.51;42.71
69731;SHT31;56996;48.138;11.538;2022-11-15T13:57:01;15.44;42.87
69731;SHT31;56996;48.138;11.538;2022-11-15T13:59:31;15.38;43.15
69731;SHT31;56996;48.138;11.538;2022-11-15T14:02:03;15.34;43.50
69731;SHT31;56996;48.138;11.538;2022-11-15T14:04:48;15.30;43.97
69731;SHT31;56996;48.138;11.538;2022-11-15T14:07:20;15.25;44.18
69731;SHT31;56996;48.138;11.538;2022-11-15T14:09:49;15.20;44.11
69731;SHT31;56996;48.138;11.538;2022-11-15T14:15:18;15.02;44.03
69731;SHT31;56996;48.138;11.538;2022-11-15T14:17:57;14.95;44.18
69731;SHT31;56996;48.138;11.538;2022-11-15T14:20:37;14.90;44.37
69731;SHT31;56996;48.138;11.538;2022-11-15T14:23:18;14.86;44.81
69731;SHT31;56996;48.138;11.538;2022-11-15T14:25:57;14.82;44.81
69731;SHT31;56996;48.138;11.538;2022-11-15T14:30:52;14.72;45.41
69731;SHT31;56996;48.138;11.538;2022-11-15T14:35:56;14.67;45.79
69731;SHT31;56996;48.138;11.538;2022-11-15T14:38:29;14.61;45.86
69731;SHT31;56996;48.138;11.538;2022-11-15T14:40:56;14.55;46.11
69731;SHT31;56996;48.138;11.538;2022-11-15T14:43:24;14.52;46.53
69731;SHT31;56996;48.138;11.538;2022-11-15T14:45:51;14.46;46.91
69731;SHT31;56996;48.138;11.538;2022-11-15T14:48:17;14.43;47.12
69731;SHT31;56996;48.138;11.538;2022-11-15T14:50:44;14.36;47.30
69731;SHT31;56996;48.138;11.538;2022-11-15T14:53:11;14.25;47.49
69731;SHT31;56996;48.138;11.538;2022-11-15T14:55:41;14.17;47.84
69731;SHT31;56996;48.138;11.538;2022-11-15T14:58:08;14.13;48.36
69731;SHT31;56996;48.138;11.538;2022-11-15T15:00:36;14.03;49.33
69731;SHT31;56996;48.138;11.538;2022-11-15T15:03:05;13.96;50.69
69731;SHT31;56996;48.138;11.538;2022-11-15T15:05:40;13.89;51.99
69731;SHT31;56996;48.138;11.538;2022-11-15T15:08:09;13.79;52.98
69731;SHT31;56996;48.138;11.538;2022-11-15T15:10:41;13.70;53.82
69731;SHT31;56996;48.138;11.538;2022-11-15T15:13:17;13.63;54.28
69731;SHT31;56996;48.138;11.538;2022-11-15T15:15:49;13.56;54.97
69731;SHT31;56996;48.138;11.538;2022-11-15T15:18:17;13.47;55.58
69731;SHT31;56996;48.138;11.538;2022-11-15T15:20:55;13.39;56.13
69731;SHT31;56996;48.138;11.538;2022-11-15T15:23:26;13.30;56.65
69731;SHT31;56996;48.138;11.538;2022-11-15T15:25:55;13.22;57.07
69731;SHT31;56996;48.138;11.538;2022-11-15T15:28:22;13.14;57.43
69731;SHT31;56996;48.138;11.538;2022-11-15T15:30:48;13.08;57.67
69731;SHT31;56996;48.138;11.538;2022-11-15T15:33:19;13.03;57.74
69731;SHT31;56996;48.138;11.538;2022-11-15T15:35:45;12.98;58.18
69731;SHT31;56996;48.138;11.538;2022-11-15T15:38:12;12.90;58.58
69731;SHT31;56996;48.138;11.538;2022-11-15T15:40:39;12.81;58.64
69731;SHT31;56996;48.138;11.538;2022-11-15T15:43:05;12.73;58.97
69731;SHT31;56996;48.138;11.538;2022-11-15T15:45:36;12.68;58.99
69731;SHT31;56996;48.138;11.538;2022-11-15T15:48:05;12.64;59.18
69731;SHT31;56996;48.138;11.538;2022-11-15T15:50:36;12.58;59.64
69731;SHT31;56996;48.138;11.538;2022-11-15T15:53:03;12.52;59.74
69731;SHT31;56996;48.138;11.538;2022-11-15T15:55:31;12.47;59.98
69731;SHT31;56996;48.138;11.538;2022-11-15T15:57:57;12.40;60.07
69731;SHT31;56996;48.138;11.538;2022-11-15T16:00:24;12.36;60.22
69731;SHT31;56996;48.138;11.538;2022-11-15T16:02:52;12.31;60.47
69731;SHT31;56996;48.138;11.538;2022-11-15T16:05:20;12.22;60.93
69731;SHT31;56996;48.138;11.538;2022-11-15T16:07:48;12.13;60.99
69731;SHT31;56996;48.138;11.538;2022-11-15T16:12:51;11.95;61.87
69731;SHT31;56996;48.138;11.538;2022-11-15T16:15:20;11.87;62.06
69731;SHT31;56996;48.138;11.538;2022-11-15T16:17:51;11.82;61.87
69731;SHT31;56996;48.138;11.538;2022-11-15T16:20:39;11.81;61.85
69731;SHT31;56996;48.138;11.538;2022-11-15T16:23:13;11.81;61.95
69731;SHT31;56996;48.138;11.538;2022-11-15T16:28:36;11.79;62.24
69731;SHT31;56996;48.138;11.538;2022-11-15T16:31:03;11.81;62.29
69731;SHT31;56996;48.138;11.538;2022-11-15T16:33:34;11.81;62.39
69731;SHT31;56996;48.138;11.538;2022-11-15T16:36:02;11.83;62.41
69731;SHT31;56996;48.138;11.538;2022-11-15T16:38:30;11.82;62.46
69731;SHT31;56996;48.138;11.538;2022-11-15T16:40:58;11.81;62.60
69731;SHT31;56996;48.138;11.538;2022-11-15T16:43:25;11.79;62.68
69731;SHT31;56996;48.138;11.538;2022-11-15T16:45:52;11.78;62.80
69731;SHT31;56996;48.138;11.538;2022-11-15T16:48:22;11.76;62.89
69731;SHT31;56996;48.138;11.538;2022-11-15T16:50:55;11.75;62.88
69731;SHT31;56996;48.138;11.538;2022-11-15T16:53:24;11.72;63.00
69731;SHT31;56996;48.138;11.538;2022-11-15T16:55:53;11.67;63.25
69731;SHT31;56996;48.138;11.538;2022-11-15T16:58:21;11.62;63.32
69731;SHT31;56996;48.138;11.538;2022-11-15T17:00:51;11.62;63.43
69731;SHT31;56996;48.138;11.538;2022-11-15T17:03:20;11.61;63.50
69731;SHT31;56996;48.138;11.538;2022-11-15T17:05:49;11.60;63.57
69731;SHT31;56996;48.138;11.538;2022-11-15T17:08:16;11.58;63.68
69731;SHT31;56996;48.138;11.538;2022-11-15T17:10:42;11.58;63.78
69731;SHT31;56996;48.138;11.538;2022-11-15T17:13:12;11.59;63.80
69731;SHT31;56996;48.138;11.538;2022-11-15T17:15:39;11.58;63.89
69731;SHT31;56996;48.138;11.538;2022-11-15T17:18:06;11.55;64.10
69731;SHT31;56996;48.138;11.538;2022-11-15T17:20:38;11.48;64.37
69731;SHT31;56996;48.138;11.538;2022-11-15T17:23:07;11.44;64.47
69731;SHT31;56996;48.138;11.538;2022-11-15T17:25:41;11.42;64.57
69731;SHT31;56996;48.138;11.538;2022-11-15T17:28:08;11.40;64.64
69731;SHT31;56996;48.138;11.538;2022-11-15T17:30:39;11.38;64.76
69731;SHT31;56996;48.138;11.538;2022-11-15T17:33:07;11.36;64.80
69731;SHT31;56996;48.138;11.538;2022-11-15T17:35:34;11.34;64.89
69731;SHT31;56996;48.138;11.538;2022-11-15T17:38:01;11.33;64.97
69731;SHT31;56996;48.138;11.538;2022-11-15T17:40:27;11.30;65.04
69731;SHT31;56996;48.138;11.538;2022-11-15T17:42:54;11.27;65.15
69731;SHT31;56996;48.138;11.538;2022-11-15T17:45:22;11.23;65.26
69731;SHT31;56996;48.138;11.538;2022-11-15T17:47:48;11.19;65.36
69731;SHT31;56996;48.138;11.538;2022-11-15T17:50:15;11.17;65.32
69731;SHT31;56996;48.138;11.538;2022-11-15T17:52:43;11.13;65.34
69731;SHT31;56996;48.138;11.538;2022-11-15T17:55:09;11.10;65.37
69731;SHT31;56996;48.138;11.538;2022-11-15T17:57:36;11.08;65.41
69731;SHT31;56996;48.138;11.538;2022-11-15T18:00:03;11.05;65.68
69731;SHT31;56996;48.138;11.538;2022-11-15T18:02:30;11.01;65.83
69731;SHT31;56996;48.138;11.538;2022-11-15T18:04:56;10.93;66.21
69731;SHT31;56996;48.138;11.538;2022-11-15T18:07:23;10.86;66.17
69731;SHT31;56996;48.138;11.538;2022-11-15T18:09:49;10.86;66.09
69731;SHT31;56996;48.138;11.538;2022-11-15T18:12:16;10.87;65.84
69731;SHT31;56996;48.138;11.538;2022-11-15T18:14:43;10.86;65.94
69731;SHT31;56996;48.138;11.538;2022-11-15T18:17:09;10.84;65.86
69731;SHT31;56996;48.138;11.538;2022-11-15T18:19:36;10.79;65.80
69731;SHT31;56996;48.138;11.538;2022-11-15T18:22:02;10.77;65.81
69731;SHT31;56996;48.138;11.538;2022-11-15T18:24:31;10.73;65.89
69731;SHT31;56996;48.138;11.538;2022-11-15T18:27:01;10.69;65.97
69731;SHT31;56996;48.138;11.538;2022-11-15T18:29:30;10.65;66.12
69731;SHT31;56996;48.138;11.538;2022-11-15T18:31:59;10.59;66.17
69731;SHT31;56996;48.138;11.538;2022-11-15T18:34:29;10.56;66.14
69731;SHT31;56996;48.138;11.538;2022-11-15T18:36:58;10.55;66.23
69731;SHT31;56996;48.138;11.538;2022-11-15T18:39:26;10.54;66.41
69731;SHT31;56996;48.138;11.538;2022-11-15T18:41:53;10.52;66.52
69731;SHT31;56996;48.138;11.538;2022-11-15T18:44:19;10.49;66.61
69731;SHT31;56996;48.138;11.538;2022-11-15T18:46:46;10.48;66.49
69731;SHT31;56996;48.138;11.538;2022-11-15T18:49:13;10.48;66.47
69731;SHT31;56996;48.138;11.538;2022-11-15T18:51:42;10.46;66.52
69731;SHT31;56996;48.138;11.538;2022-11-15T18:54:09;10.44;66.56
69731;SHT31;56996;48.138;11.538;2022-11-15T18:56:38;10.43;66.56
69731;SHT31;56996;48.138;11.538;2022-11-15T18:59:05;10.40;66.60
69731;SHT31;56996;48.138;11.538;2022-11-15T19:01:34;10.37;66.59
69731;SHT31;56996;48.138;11.538;2022-11-15T19:04:08;10.32;66.66
69731;SHT31;56996;48.138;11.538;2022-11-15T19:06:40;10.29;66.71
69731;SHT31;56996;48.138;11.538;2022-11-15T19:09:09;10.27;66.79
69731;SHT31;56996;48.138;11.538;2022-11-15T19:11:40;10.25;66.84
69731;SHT31;56996;48.138;11.538;2022-11-15T19:14:09;10.23;66.81
69731;SHT31;56996;48.138;11.538;2022-11-15T19:16:39;10.21;66.81